sensor_id;sensor_type;location;lat;lon;timestamp;P1;durP1;ratioP1;P2;durP2;ratioP2
79779;SDS011;69258;52.050;10.334;2024-03-08T00:08:24;7.17;;;5.60;;
79779;SDS011;69258;52.050;10.334;2024-03-08T00:23:26;5.60;;;4.77;;
79779;SDS011;69258;52.050;10.334;2024-03-08T00:38:29;6.67;;;4.90;;
79779;SDS011;69258;52.050;10.334;2024-03-08T00:53:31;6.57;;;5.10;;
79779;SDS011;69258;52.050;10.334;2024-03-08T01:08:34;6.50;;;4.70;;
79779;SDS011;69258;52.050;10.334;2024-03-08T01:23:36;5.37;;;4.83;;
79779;SDS011;69258;52.050;10.334;2024-03-08T01:38:38;5.90;;;4.73;;
79779;SDS011;69258;52.050;10.334;2024-03-08T01:53:40;5.40;;;4.77;;
79779;SDS011;69258;52.050;10.334;2024-03-08T02:08:45;6.00;;;4.60;;
79779;SDS011;69258;52.050;10.334;2024-03-08T02:23:48;4.93;;;4.50;;
79779;SDS011;69258;52.050;10.334;2024-03-08T02:38:50;4.83;;;4.10;;
79779;SDS011;69258;52.050;10.334;2024-03-08T02:53:53;4.90;;;4.40;;
79779;SDS011;69258;52.050;10.334;2024-03-08T03:08:56;5.27;;;4.50;;
79779;SDS011;69258;52.050;10.334;2024-03-08T03:23:57;4.90;;;4.40;;
79779;SDS011;69258;52.050;10.334;2024-03-08T03:39:00;6.00;;;4.57;;
79779;SDS011;69258;52.050;10.334;2024-03-08T03:54:04;6.13;;;4.47;;
79779;SDS011;69258;52.050;10.334;2024-03-08T04:09:07;5.23;;;4.73;;
79779;SDS011;69258;52.050;10.334;2024-03-08T04:24:09;7.20;;;4.77;;
79779;SDS011;69258;52.050;10.334;2024-03-08T04:39:11;5.97;;;4.73;;
79779;SDS011;69258;52.050;10.334;2024-03-08T04:54:14;4.87;;;4.23;;
79779;SDS011;69258;52.050;10.334;2024-03-08T05:09:15;6.20;;;5.60;;
79779;SDS011;69258;52.050;10.334;2024-03-08T05:24:17;6.30;;;4.87;;
79779;SDS011;69258;52.050;10.334;2024-03-08T05:39:20;8.43;;;5.07;;
79779;SDS011;69258;52.050;10.334;2024-03-08T05:54:23;7.03;;;5.50;;
79779;SDS011;69258;52.050;10.334;2024-03-08T06:09:27;6.60;;;5.03;;
79779;SDS011;69258;52.050;10.334;2024-03-08T06:24:29;6.07;;;4.73;;
79779;SDS011;69258;52.050;10.334;2024-03-08T06:39:31;13.50;;;4.73;;
79779;SDS011;69258;52.050;10.334;2024-03-08T06:54:35;9.87;;;4.53;;
79779;SDS011;69258;52.050;10.334;2024-03-08T07:09:38;5.97;;;4.10;;
79779;SDS011;69258;52.050;10.334;2024-03-08T07:24:41;6.13;;;4.30;;
79779;SDS011;69258;52.050;10.334;2024-03-08T07:39:43;7.50;;;4.53;;
79779;SDS011;69258;52.050;10.334;2024-03-08T07:54:46;6.07;;;4.50;;
79779;SDS011;69258;52.050;10.334;2024-03-08T08:09:47;7.63;;;4.53;;
79779;SDS011;69258;52.050;10.334;2024-03-08T08:24:49;12.13;;;5.00;;
79779;SDS011;69258;52.050;10.334;2024-03-08T08:39:52;7.07;;;3.90;;
79779;SDS011;69258;52.050;10.334;2024-03-08T08:54:54;5.63;;;4.50;;
79779;SDS011;69258;52.050;10.334;2024-03-08T09:09:55;6.07;;;4.60;;
79779;SDS011;69258;52.050;10.334;2024-03-08T09:24:57;6.00;;;4.20;;
79779;SDS011;69258;52.050;10.334;2024-03-08T09:40:00;4.70;;;4.20;;
79779;SDS011;69258;52.050;10.334;2024-03-08T09:55:06;7.93;;;4.20;;
79779;SDS011;69258;52.050;10.334;2024-03-08T10:10:08;5.10;;;4.17;;
79779;SDS011;69258;52.050;10.334;2024-03-08T10:25:10;5.33;;;4.63;;
79779;SDS011;69258;52.050;10.334;2024-03-08T10:40:15;6.03;;;4.57;;
79779;SDS011;69258;52.050;10.334;2024-03-08T10:55:19;10.27;;;4.97;;
79779;SDS011;69258;52.050;10.334;2024-03-08T11:10:22;4.73;;;4.33;;
79779;SDS011;69258;52.050;10.334;2024-03-08T11:25:31;5.37;;;4.60;;
79779;SDS011;69258;52.050;10.334;2024-03-08T11:40:41;5.27;;;4.43;;
79779;SDS011;69258;52.050;10.334;2024-03-08T11:55:43;7.37;;;5.50;;
79779;SDS011;69258;52.050;10.334;2024-03-08T12:10:45;11.17;;;6.53;;
79779;SDS011;69258;52.050;10.334;2024-03-08T12:25:48;12.83;;;7.07;;
79779;SDS011;69258;52.050;10.334;2024-03-08T12:40:55;10.53;;;6.23;;
79779;SDS011;69258;52.050;10.334;2024-03-08T12:55:57;12.17;;;6.20;;
79779;SDS011;69258;52.050;10.334;2024-03-08T13:10:59;9.57;;;5.93;;
79779;SDS011;69258;52.050;10.334;2024-03-08T13:26:02;10.87;;;5.87;;
79779;SDS011;69258;52.050;10.334;2024-03-08T13:41:06;9.43;;;5.70;;
79779;SDS011;69258;52.050;10.334;2024-03-08T13:56:09;9.07;;;5.93;;
79779;SDS011;69258;52.050;10.334;2024-03-08T14:11:12;10.30;;;5.60;;
79779;SDS011;69258;52.050;10.334;2024-03-08T14:26:15;7.80;;;5.60;;
79779;SDS011;69258;52.050;10.334;2024-03-08T14:41:18;9.47;;;6.67;;
79779;SDS011;69258;52.050;10.334;2024-03-08T14:56:21;11.87;;;6.27;;
79779;SDS011;69258;52.050;10.334;2024-03-08T15:11:23;10.07;;;6.33;;
79779;SDS011;69258;52.050;10.334;2024-03-08T15:26:27;11.03;;;5.60;;
79779;SDS011;69258;52.050;10.334;2024-03-08T15:41:31;9.57;;;6.40;;
79779;SDS011;69258;52.050;10.334;2024-03-08T15:56:34;9.13;;;6.17;;
79779;SDS011;69258;52.050;10.334;2024-03-08T16:11:37;8.70;;;5.70;;
79779;SDS011;69258;52.050;10.334;2024-03-08T16:26:40;6.20;;;5.60;;
79779;SDS011;69258;52.050;10.334;2024-03-08T16:41:42;8.30;;;5.67;;
79779;SDS011;69258;52.050;10.334;2024-03-08T16:56:45;6.60;;;5.73;;
79779;SDS011;69258;52.050;10.334;2024-03-08T17:11:47;6.47;;;5.33;;
79779;SDS011;69258;52.050;10.334;2024-03-08T17:26:50;7.37;;;5.43;;
79779;SDS011;69258;52.050;10.334;2024-03-08T17:41:54;7.53;;;5.50;;
79779;SDS011;69258;52.050;10.334;2024-03-08T17:56:55;7.57;;;5.47;;
79779;SDS011;69258;52.050;10.334;2024-03-08T18:11:57;6.67;;;5.53;;
79779;SDS011;69258;52.050;10.334;2024-03-08T18:27:01;6.43;;;5.23;;
79779;SDS011;69258;52.050;10.334;2024-03-08T18:42:04;5.87;;;5.27;;
79779;SDS011;69258;52.050;10.334;2024-03-08T18:57:07;8.10;;;5.60;;
79779;SDS011;69258;52.050;10.334;2024-03-08T19:12:09;9.70;;;5.73;;
79779;SDS011;69258;52.050;10.334;2024-03-08T19:27:11;8.63;;;5.20;;
79779;SDS011;69258;52.050;10.334;2024-03-08T19:42:14;6.63;;;5.33;;
79779;SDS011;69258;52.050;10.334;2024-03-08T19:57:17;7.60;;;5.30;;
79779;SDS011;69258;52.050;10.334;2024-03-08T20:12:19;8.33;;;5.30;;
79779;SDS011;69258;52.050;10.334;2024-03-08T20:27:22;7.07;;;5.10;;
79779;SDS011;69258;52.050;10.334;2024-03-08T20:42:25;5.77;;;5.13;;
79779;SDS011;69258;52.050;10.334;2024-03-08T20:57:27;6.47;;;5.03;;
79779;SDS011;69258;52.050;10.334;2024-03-08T21:12:30;6.27;;;4.50;;
79779;SDS011;69258;52.050;10.334;2024-03-08T21:27:35;6.10;;;5.00;;
79779;SDS011;69258;52.050;10.334;2024-03-08T21:42:41;9.67;;;4.73;;
79779;SDS011;69258;52.050;10.334;2024-03-08T21:57:43;8.97;;;5.17;;
79779;SDS011;69258;52.050;10.334;2024-03-08T22:12:48;6.83;;;5.13;;
79779;SDS011;69258;52.050;10.334;2024-03-08T22:27:51;5.80;;;5.23;;
79779;SDS011;69258;52.050;10.334;2024-03-08T22:42:54;7.53;;;5.60;;
79779;SDS011;69258;52.050;10.334;2024-03-08T22:57:56;7.30;;;5.60;;
79779;SDS011;69258;52.050;10.334;2024-03-08T23:12:59;7.03;;;5.37;;
79779;SDS011;69258;52.050;10.334;2024-03-08T23:28:01;6.87;;;5.60;;
79779;SDS011;69258;52.050;10.334;2024-03-08T23:43:05;7.00;;;6.30;;
79779;SDS011;69258;52.050;10.334;2024-03-08T23:58:08;8.57;;;6.87;;
